Time;durP1;ratioP1;P1;durP2;ratioP2;P2;SDS_P1;SDS_P2;PMS_P1;PMS_P2;Temp;Humidity;BMP_temperature;BMP_pressure;BME280_temperature;BME280_humidity;BME280_pressure;Samples;Min_cycle;Max_cycle;Signal;HPM_P1;HPM_P2
2021/10/20 00:02:15;;;;;;;3.00;2.33;;;;;;;12.63;71.56;97007.88;5061802;28;20200;-67
2021/10/20 00:04:40;;;;;;;3.03;2.73;;;;;;;12.61;71.73;97000.22;5068067;28;20212;-67
2021/10/20 00:07:05;;;;;;;2.77;2.50;;;;;;;12.63;71.78;96997.34;5066564;28;20176;-67
2021/10/20 00:09:31;;;;;;;2.63;2.30;;;;;;;12.64;71.59;96998.97;5075086;28;20173;-68
2021/10/20 00:11:56;;;;;;;4.80;2.60;;;;;;;12.62;71.59;96999.19;5067765;28;20762;-67
2021/10/20 00:14:22;;;;;;;2.87;2.60;;;;;;;12.61;71.52;96997.59;5060617;28;20215;-68
2021/10/20 00:16:48;;;;;;;2.90;2.60;;;;;;;12.55;71.83;96993.25;5067332;28;20198;-67
2021/10/20 00:19:13;;;;;;;2.90;2.60;;;;;;;12.50;71.48;96988.72;5066957;28;20544;-67
2021/10/20 00:21:39;;;;;;;2.77;2.30;;;;;;;12.61;71.22;96986.25;5074910;28;20177;-67
2021/10/20 00:24:05;;;;;;;3.87;2.40;;;;;;;12.74;71.00;96984.16;5055873;28;20241;-68
2021/10/20 00:26:30;;;;;;;3.00;2.43;;;;;;;12.74;70.72;96992.06;5060167;28;20227;-68
2021/10/20 00:28:56;;;;;;;3.10;2.20;;;;;;;12.73;70.68;96979.94;5066459;28;20186;-68
2021/10/20 00:31:21;;;;;;;5.50;2.63;;;;;;;12.76;70.58;96983.94;5067563;28;20181;-68
2021/10/20 00:33:47;;;;;;;2.60;2.10;;;;;;;12.73;70.33;96974.69;5059466;28;20285;-69
2021/10/20 00:36:12;;;;;;;3.93;2.90;;;;;;;12.71;70.00;96973.31;5058507;28;20205;-68
2021/10/20 00:38:38;;;;;;;4.27;3.23;;;;;;;12.74;70.16;96971.03;5069179;28;20177;-68
2021/10/20 00:41:04;;;;;;;3.13;2.40;;;;;;;12.57;70.53;96978.06;5064534;28;20185;-68
2021/10/20 00:43:29;;;;;;;3.47;2.63;;;;;;;12.54;71.04;96973.25;5062022;28;20615;-68
2021/10/20 00:45:55;;;;;;;6.10;2.53;;;;;;;12.61;70.97;96962.59;5070973;28;20197;-68
2021/10/20 00:48:20;;;;;;;3.57;2.57;;;;;;;12.47;71.15;96959.47;5057889;28;20552;-68
2021/10/20 00:50:46;;;;;;;3.73;2.63;;;;;;;12.51;71.25;96957.97;5067817;28;20653;-68
2021/10/20 00:53:11;;;;;;;3.80;2.57;;;;;;;12.58;70.62;96953.38;5064628;28;20179;-68
2021/10/20 00:55:37;;;;;;;2.63;2.03;;;;;;;12.56;70.80;96957.25;5064823;28;20248;-69
2021/10/20 00:58:04;;;;;;;4.17;2.40;;;;;;;12.67;70.46;96946.69;5060718;28;20186;-69
2021/10/20 01:00:30;;;;;;;4.17;2.60;;;;;;;12.64;70.53;96943.75;5070224;28;20232;-68
2021/10/20 01:02:56;;;;;;;4.33;2.50;;;;;;;12.59;70.78;96949.72;5061817;28;20280;-68
2021/10/20 01:05:23;;;;;;;2.53;2.33;;;;;;;12.66;70.37;96942.47;5063292;28;20710;-68
2021/10/20 01:07:48;;;;;;;2.87;2.50;;;;;;;12.60;70.68;96939.97;5068646;28;20587;-67
2021/10/20 01:10:15;;;;;;;2.57;2.37;;;;;;;12.58;70.92;96944.69;5057292;28;20182;-69
2021/10/20 01:12:41;;;;;;;2.93;2.27;;;;;;;12.62;70.71;96933.44;5067902;28;20186;-68
2021/10/20 01:15:13;;;;;;;3.47;2.43;;;;;;;12.47;70.98;96936.59;5062498;28;20252;-68
2021/10/20 01:17:40;;;;;;;3.43;2.53;;;;;;;12.55;70.50;96927.53;5061271;28;20191;-69
2021/10/20 01:20:06;;;;;;;3.50;2.20;;;;;;;12.57;70.60;96920.22;5055355;28;20206;-67
2021/10/20 01:22:32;;;;;;;4.23;2.67;;;;;;;12.58;70.30;96919.19;5070697;28;20624;-68
2021/10/20 01:25:02;;;;;;;2.40;2.20;;;;;;;12.48;70.83;96905.88;5058407;28;20197;-69
2021/10/20 01:27:28;;;;;;;2.37;2.17;;;;;;;12.40;70.97;96899.13;5063161;28;20174;-68
2021/10/20 01:30:00;;;;;;;2.63;2.27;;;;;;;12.46;70.63;96898.19;5054225;28;20665;-68
2021/10/20 01:32:26;;;;;;;2.83;2.13;;;;;;;12.51;70.52;96897.50;5054153;28;20724;-69
2021/10/20 01:34:55;;;;;;;2.87;2.53;;;;;;;12.41;70.86;96897.31;5073693;28;20288;-68
2021/10/20 01:37:24;;;;;;;4.50;2.40;;;;;;;12.38;71.12;96887.25;5073292;28;20771;-68
2021/10/20 01:39:51;;;;;;;3.67;2.60;;;;;;;12.40;71.45;96891.25;5062064;28;20265;-68
2021/10/20 01:42:17;;;;;;;3.03;2.23;;;;;;;12.41;70.87;96882.34;5055543;28;20182;-68
2021/10/20 01:44:42;;;;;;;6.37;2.00;;;;;;;12.32;71.13;96881.09;5067827;28;20779;-68
2021/10/20 01:47:08;;;;;;;3.67;2.60;;;;;;;12.37;70.62;96873.31;5065063;28;20194;-68
2021/10/20 01:49:33;;;;;;;3.27;2.37;;;;;;;12.37;69.77;96862.78;5059916;28;20201;-68
2021/10/20 01:51:58;;;;;;;3.97;2.67;;;;;;;12.49;69.23;96868.00;5069828;28;20181;-68
2021/10/20 01:54:24;;;;;;;4.00;2.50;;;;;;;12.28;69.97;96863.41;5064119;28;20197;-68
2021/10/20 01:56:50;;;;;;;2.53;2.30;;;;;;;12.28;70.57;96866.03;5071281;28;20663;-68
2021/10/20 01:59:16;;;;;;;2.70;2.40;;;;;;;12.18;71.23;96857.97;5061830;28;20220;-67
2021/10/20 02:01:41;;;;;;;2.40;2.20;;;;;;;12.14;71.70;96844.53;5068459;28;20184;-67
2021/10/20 02:04:11;;;;;;;2.40;2.20;;;;;;;12.17;71.45;96851.91;5056492;28;20197;-68
2021/10/20 02:06:38;;;;;;;2.60;2.23;;;;;;;12.23;71.23;96845.72;5072257;28;20197;-68
2021/10/20 02:09:06;;;;;;;2.40;2.20;;;;;;;12.24;71.30;96843.91;5063719;28;20170;-68
2021/10/20 02:11:33;;;;;;;3.07;2.40;;;;;;;12.18;71.73;96836.94;5066450;28;20243;-68
2021/10/20 02:13:58;;;;;;;2.87;2.37;;;;;;;12.03;72.11;96833.03;5072384;28;20172;-68
2021/10/20 02:16:24;;;;;;;2.93;2.53;;;;;;;12.09;71.84;96826.03;5057067;28;20254;-68
2021/10/20 02:18:49;;;;;;;3.43;2.60;;;;;;;12.23;71.66;96826.53;5058000;28;20194;-68
2021/10/20 02:21:16;;;;;;;2.43;2.23;;;;;;;12.12;71.66;96822.13;5062263;28;20635;-67
2021/10/20 02:23:41;;;;;;;3.37;2.33;;;;;;;12.03;71.48;96824.34;5058450;28;20178;-68
2021/10/20 02:26:07;;;;;;;2.80;2.30;;;;;;;11.97;71.33;96817.41;5069253;28;20546;-67
2021/10/20 02:28:32;;;;;;;2.97;2.50;;;;;;;12.07;70.66;96810.50;5067653;28;20173;-68
2021/10/20 02:30:58;;;;;;;2.43;2.23;;;;;;;12.10;70.24;96811.84;5055596;28;20173;-67
2021/10/20 02:33:23;;;;;;;2.50;2.30;;;;;;;12.15;69.64;96814.56;5054545;28;20651;-68
2021/10/20 02:35:49;;;;;;;2.40;2.20;;;;;;;12.29;69.22;96810.63;5068033;28;20248;-68
2021/10/20 02:38:14;;;;;;;2.83;2.20;;;;;;;12.28;69.37;96809.03;5055648;28;20182;-67
2021/10/20 02:40:40;;;;;;;2.77;2.40;;;;;;;12.19;69.48;96804.41;5072354;28;20169;-69
2021/10/20 02:43:06;;;;;;;4.57;2.43;;;;;;;12.24;69.49;96812.38;5063935;28;20197;-67
2021/10/20 02:45:31;;;;;;;2.37;2.10;;;;;;;12.25;69.42;96809.50;5059097;28;20201;-68
2021/10/20 02:47:57;;;;;;;12.57;2.40;;;;;;;12.14;69.55;96812.19;5053232;28;20189;-67
2021/10/20 02:50:22;;;;;;;3.33;2.13;;;;;;;12.07;69.84;96805.25;5066302;28;20198;-68
2021/10/20 02:52:48;;;;;;;2.80;2.60;;;;;;;12.24;69.29;96805.28;5066797;28;20186;-68
2021/10/20 02:55:14;;;;;;;2.27;2.07;;;;;;;12.14;69.43;96809.56;5059078;28;20943;-68
2021/10/20 02:57:39;;;;;;;2.40;2.00;;;;;;;12.13;69.42;96803.50;5072530;28;20185;-68
2021/10/20 03:00:06;;;;;;;3.47;2.53;;;;;;;12.21;69.06;96795.22;5071797;28;20177;-68
2021/10/20 03:02:31;;;;;;;3.20;2.00;;;;;;;12.22;68.74;96796.81;5053515;28;20555;-68
2021/10/20 03:04:57;;;;;;;3.20;2.13;;;;;;;12.26;68.25;96800.56;5058858;28;20208;-68
2021/10/20 03:07:22;;;;;;;3.33;2.30;;;;;;;12.12;69.03;96791.41;5062528;28;20756;-68
2021/10/20 03:09:48;;;;;;;2.53;2.33;;;;;;;12.28;68.17;96789.81;5065949;28;20188;-67
2021/10/20 03:12:13;;;;;;;2.77;2.27;;;;;;;12.29;67.85;96779.09;5070897;28;20551;-68
2021/10/20 03:14:39;;;;;;;2.50;2.30;;;;;;;12.28;67.17;96774.06;5067448;28;20559;-68
2021/10/20 03:17:05;;;;;;;2.53;2.10;;;;;;;12.38;66.49;96780.28;5066962;28;20190;-68
2021/10/20 03:19:30;;;;;;;2.17;2.07;;;;;;;12.36;66.58;96784.19;5067011;28;20722;-68
2021/10/20 03:21:55;;;;;;;5.53;2.10;;;;;;;12.36;66.37;96777.09;5062773;28;20171;-68
2021/10/20 03:24:21;;;;;;;2.20;2.00;;;;;;;12.36;66.00;96777.09;5072893;28;20240;-69
2021/10/20 03:26:46;;;;;;;3.77;2.17;;;;;;;12.43;65.61;96777.72;5056594;28;20261;-67
2021/10/20 03:29:12;;;;;;;2.30;2.10;;;;;;;12.40;65.64;96769.53;5068695;28;20174;-67
2021/10/20 03:31:37;;;;;;;3.60;2.10;;;;;;;12.41;65.32;96769.31;5069933;28;20169;-68
2021/10/20 03:34:03;;;;;;;3.20;2.10;;;;;;;12.38;65.76;96768.97;5065613;28;20560;-67
2021/10/20 03:36:29;;;;;;;2.33;2.00;;;;;;;12.45;65.59;96764.34;5055362;28;20201;-68
2021/10/20 03:38:55;;;;;;;3.87;2.27;;;;;;;12.38;65.85;96761.09;5070257;28;20174;-69
2021/10/20 03:41:20;;;;;;;1.77;1.67;;;;;;;12.48;65.89;96759.41;5059278;28;20209;-68
2021/10/20 03:43:46;;;;;;;2.83;2.23;;;;;;;12.52;65.76;96756.31;5071721;28;20181;-68
2021/10/20 03:46:11;;;;;;;3.33;2.20;;;;;;;12.47;65.97;96749.16;5064122;28;20212;-67
2021/10/20 03:48:37;;;;;;;2.20;1.97;;;;;;;12.29;66.63;96749.38;5064768;28;20193;-67
2021/10/20 03:51:03;;;;;;;1.77;1.67;;;;;;;12.42;66.48;96738.56;5070546;28;20177;-68
2021/10/20 03:53:29;;;;;;;2.63;1.90;;;;;;;12.35;66.75;96736.09;5058908;28;20277;-68
2021/10/20 03:55:54;;;;;;;2.87;2.20;;;;;;;12.33;66.83;96740.78;5072950;28;20378;-67
2021/10/20 03:58:21;;;;;;;2.27;1.90;;;;;;;12.27;66.94;96735.66;5074348;28;20653;-67
2021/10/20 04:00:47;;;;;;;2.57;2.10;;;;;;;12.33;66.60;96735.50;5063923;28;20628;-67
2021/10/20 04:03:12;;;;;;;2.53;2.03;;;;;;;12.29;66.66;96731.78;5071185;28;20177;-68
2021/10/20 04:05:38;;;;;;;2.67;2.10;;;;;;;12.25;66.51;96727.25;5057490;28;20202;-67
2021/10/20 04:08:03;;;;;;;2.10;1.90;;;;;;;12.33;66.21;96732.88;5055744;28;20169;-67
2021/10/20 04:10:29;;;;;;;2.20;2.00;;;;;;;12.27;66.28;96730.41;5055641;28;20182;-68
2021/10/20 04:12:55;;;;;;;2.07;1.70;;;;;;;12.27;66.15;96730.41;5055847;28;20162;-67
2021/10/20 04:15:23;;;;;;;1.90;1.80;;;;;;;12.36;65.92;96723.75;5057871;28;20206;-67
2021/10/20 04:17:49;;;;;;;2.57;1.90;;;;;;;12.36;65.64;96723.75;5056232;28;20182;-69
2021/10/20 04:20:16;;;;;;;2.63;2.37;;;;;;;12.44;65.32;96726.75;5055778;28;20223;-67
2021/10/20 04:22:43;;;;;;;1.80;1.70;;;;;;;12.44;65.47;96726.75;5055647;28;20205;-68
2021/10/20 04:25:10;;;;;;;2.17;1.93;;;;;;;12.35;65.74;96725.56;5057569;28;20194;-67
2021/10/20 04:27:36;;;;;;;2.90;1.97;;;;;;;12.27;66.27;96725.16;5055442;28;20158;-67
2021/10/20 04:30:03;;;;;;;2.63;1.90;;;;;;;12.24;66.50;96721.19;5071206;28;20548;-67
2021/10/20 04:32:29;;;;;;;2.03;1.93;;;;;;;12.19;66.05;96722.94;5064108;28;20224;-67
2021/10/20 04:34:55;;;;;;;5.03;2.10;;;;;;;12.29;66.10;96713.38;5058585;28;20231;-67
2021/10/20 04:37:25;;;;;;;1.93;1.80;;;;;;;12.22;65.87;96711.94;5055647;28;20205;-67
2021/10/20 04:39:53;;;;;;;2.80;2.10;;;;;;;12.24;64.91;96713.31;5055187;28;20208;-67
2021/10/20 04:42:20;;;;;;;2.33;2.00;;;;;;;12.27;64.18;96719.91;5062762;28;20188;-67
2021/10/20 04:44:45;;;;;;;2.00;1.80;;;;;;;12.25;63.98;96709.66;5060122;28;20213;-67
2021/10/20 04:47:11;;;;;;;2.17;1.80;;;;;;;12.36;63.06;96716.66;5068673;28;20185;-68
2021/10/20 04:49:36;;;;;;;3.07;2.27;;;;;;;12.47;62.97;96717.59;5057693;28;20197;-67
2021/10/20 04:52:02;;;;;;;2.80;1.73;;;;;;;12.43;62.95;96721.72;5060103;28;20177;-68
2021/10/20 04:54:28;;;;;;;2.13;1.90;;;;;;;12.45;63.16;96717.03;5066164;28;20198;-67
2021/10/20 04:56:53;;;;;;;3.47;2.03;;;;;;;12.46;62.75;96713.38;5069243;28;20237;-67
2021/10/20 04:59:18;;;;;;;2.10;2.00;;;;;;;12.46;62.76;96718.63;5074275;28;20539;-67
2021/10/20 05:01:44;;;;;;;1.87;1.70;;;;;;;12.49;62.10;96708.44;5061546;28;20646;-66
2021/10/20 05:04:09;;;;;;;2.00;1.90;;;;;;;12.57;61.85;96712.50;5054653;28;20206;-67
2021/10/20 05:06:35;;;;;;;2.33;1.90;;;;;;;12.53;62.19;96702.72;5065008;28;20248;-70
2021/10/20 05:09:00;;;;;;;2.20;2.00;;;;;;;12.64;61.95;96702.63;5059963;28;20174;-66
2021/10/20 05:11:25;;;;;;;4.37;2.23;;;;;;;12.66;61.78;96690.00;5055412;28;20214;-67
2021/10/20 05:13:51;;;;;;;2.20;2.00;;;;;;;12.56;62.03;96691.69;5069696;28;20538;-67
2021/10/20 05:16:16;;;;;;;2.37;1.80;;;;;;;12.51;61.91;96687.16;5054938;28;20205;-67
2021/10/20 05:18:43;;;;;;;2.37;2.13;;;;;;;12.45;62.40;96686.28;5052874;28;20185;-67
2021/10/20 05:21:08;;;;;;;2.20;2.00;;;;;;;12.51;61.94;96676.66;5055584;28;20257;-68
2021/10/20 05:23:34;;;;;;;2.40;1.63;;;;;;;12.35;62.42;96675.63;5057170;28;20264;-67
2021/10/20 05:26:00;;;;;;;3.30;2.17;;;;;;;12.42;62.02;96676.28;5067952;28;20208;-67
2021/10/20 05:28:25;;;;;;;2.37;2.17;;;;;;;12.49;61.98;96678.72;5054204;28;20181;-67
2021/10/20 05:30:51;;;;;;;2.33;1.97;;;;;;;12.44;62.19;96679.44;5067629;28;20203;-66
2021/10/20 05:33:16;;;;;;;1.87;1.70;;;;;;;12.46;61.55;96676.59;5071949;28;20177;-67
2021/10/20 05:35:42;;;;;;;2.47;2.00;;;;;;;12.53;61.41;96677.22;5070284;28;20662;-67
2021/10/20 05:38:07;;;;;;;2.20;2.00;;;;;;;12.59;61.26;96667.56;5071695;28;20181;-67
2021/10/20 05:40:34;;;;;;;3.67;1.93;;;;;;;12.49;61.81;96679.50;5062482;28;20174;-67
2021/10/20 05:43:00;;;;;;;1.83;1.73;;;;;;;12.50;61.74;96683.75;5054874;28;20178;-67
2021/10/20 05:45:26;;;;;;;2.27;2.00;;;;;;;12.57;61.48;96678.31;5054707;28;20653;-67
2021/10/20 05:47:51;;;;;;;2.73;2.20;;;;;;;12.62;61.43;96681.00;5059399;28;20212;-67
2021/10/20 05:50:17;;;;;;;3.37;1.97;;;;;;;12.50;61.74;96691.63;5055526;28;20276;-67
2021/10/20 05:52:43;;;;;;;2.40;1.97;;;;;;;12.70;61.45;96685.06;5055220;28;20190;-68
2021/10/20 05:55:10;;;;;;;2.03;1.70;;;;;;;12.58;62.06;96685.19;5052823;28;20209;-68
2021/10/20 05:57:37;;;;;;;3.23;2.37;;;;;;;12.59;61.98;96681.50;5073330;28;20197;-66
2021/10/20 06:00:06;;;;;;;4.37;2.27;;;;;;;12.68;62.09;96687.16;5088906;28;20207;-67
2021/10/20 06:02:31;;;;;;;2.20;2.00;;;;;;;12.62;62.66;96686.28;5061821;28;20177;-68
2021/10/20 06:04:57;;;;;;;2.20;2.00;;;;;;;12.67;62.36;96677.66;5069293;28;20196;-67
2021/10/20 06:07:22;;;;;;;2.33;2.10;;;;;;;12.76;63.13;96673.59;5068259;28;20161;-67
2021/10/20 06:09:48;;;;;;;3.53;2.07;;;;;;;12.67;62.91;96680.28;5068171;28;20308;-68
2021/10/20 06:12:13;;;;;;;2.30;2.10;;;;;;;12.65;63.01;96679.75;5052815;28;20165;-67
2021/10/20 06:14:39;;;;;;;2.63;2.43;;;;;;;12.72;63.64;96675.88;5057203;28;20813;-67
2021/10/20 06:17:04;;;;;;;6.10;2.57;;;;;;;12.86;63.08;96671.88;5064433;28;20747;-67
2021/10/20 06:19:29;;;;;;;3.07;2.40;;;;;;;12.87;63.31;96677.94;5063877;28;20181;-69
2021/10/20 06:21:57;;;;;;;2.43;2.23;;;;;;;13.12;62.28;96670.41;5065325;28;20176;-69
2021/10/20 06:24:22;;;;;;;2.10;1.90;;;;;;;13.17;62.18;96677.53;5053711;28;20610;-69
2021/10/20 06:26:48;;;;;;;3.60;2.23;;;;;;;13.16;61.96;96681.22;5059889;28;20214;-69
2021/10/20 06:29:14;;;;;;;2.73;2.13;;;;;;;13.16;62.16;96673.31;5068753;28;20704;-68
2021/10/20 06:31:39;;;;;;;3.10;2.10;;;;;;;13.36;61.74;96672.78;5058082;28;20170;-69
2021/10/20 06:34:07;;;;;;;3.57;2.40;;;;;;;13.52;61.19;96679.78;5072919;28;20201;-69
2021/10/20 06:36:34;;;;;;;4.30;2.17;;;;;;;13.55;60.92;96681.91;5068928;28;20751;-70
2021/10/20 06:39:00;;;;;;;2.63;2.30;;;;;;;13.57;63.64;96682.47;5060764;28;20181;-68
2021/10/20 06:41:26;;;;;;;2.30;2.10;;;;;;;13.53;62.13;96686.66;5068340;28;20732;-68
2021/10/20 06:43:52;;;;;;;3.17;2.40;;;;;;;13.69;63.15;96691.84;5053360;28;20250;-69
2021/10/20 06:46:18;;;;;;;3.57;2.60;;;;;;;13.99;60.64;96679.97;5056778;28;20174;-73
2021/10/20 06:48:43;;;;;;;2.70;2.33;;;;;;;14.20;60.20;96694.13;5060440;28;20238;-72
2021/10/20 06:51:09;;;;;;;3.87;2.30;;;;;;;14.50;58.90;96689.91;5071734;28;20205;-72
2021/10/20 06:53:36;;;;;;;3.07;2.33;;;;;;;14.31;60.11;96683.41;5053733;28;20169;-72
2021/10/20 06:56:04;;;;;;;4.83;2.33;;;;;;;14.16;61.13;96689.34;5057442;28;20233;-71
2021/10/20 06:58:29;;;;;;;6.30;2.40;;;;;;;14.10;61.90;96679.81;5061745;28;20169;-72
2021/10/20 07:00:55;;;;;;;4.27;2.87;;;;;;;14.11;61.72;96685.88;5059123;28;20627;-72
2021/10/20 07:03:20;;;;;;;3.07;2.67;;;;;;;14.05;62.20;96686.88;5052863;28;20184;-71
2021/10/20 07:05:46;;;;;;;4.70;2.90;;;;;;;14.14;61.27;96680.13;5057216;28;20236;-71
2021/10/20 07:08:12;;;;;;;4.00;2.70;;;;;;;14.31;61.06;96680.78;5051446;28;20205;-72
2021/10/20 07:10:37;;;;;;;4.13;2.57;;;;;;;14.37;61.29;96681.66;5065745;28;20201;-71
2021/10/20 07:13:04;;;;;;;2.67;2.47;;;;;;;14.38;61.45;96673.47;5070849;28;20226;-71
2021/10/20 07:15:30;;;;;;;3.37;2.87;;;;;;;14.49;61.99;96671.69;5071723;28;20680;-71
2021/10/20 07:17:55;;;;;;;3.80;2.60;;;;;;;14.50;61.78;96662.72;5071108;28;20173;-71
2021/10/20 07:20:21;;;;;;;4.73;2.80;;;;;;;14.69;61.72;96673.69;5052960;28;20204;-71
2021/10/20 07:22:46;;;;;;;3.00;2.80;;;;;;;14.76;61.40;96674.25;5053999;28;20204;-72
2021/10/20 07:25:18;;;;;;;4.20;3.30;;;;;;;14.86;61.44;96666.38;5069824;28;20197;-71
2021/10/20 07:27:44;;;;;;;3.00;2.67;;;;;;;14.95;60.94;96675.41;5071895;28;20219;-72
2021/10/20 07:30:11;;;;;;;4.10;2.77;;;;;;;15.05;60.76;96677.28;5057864;28;20181;-71
2021/10/20 07:32:39;;;;;;;3.73;2.87;;;;;;;15.11;60.92;96669.13;5057438;28;20268;-71
2021/10/20 07:35:09;;;;;;;6.63;3.40;;;;;;;15.21;61.00;96671.81;5064556;28;20205;-72
2021/10/20 07:37:36;;;;;;;4.47;2.90;;;;;;;15.33;61.47;96668.94;5066440;28;20559;-72
2021/10/20 07:40:04;;;;;;;4.80;2.70;;;;;;;15.36;61.68;96674.53;5055940;28;20192;-72
2021/10/20 07:42:29;;;;;;;4.40;3.30;;;;;;;15.42;61.21;96664.78;5059365;28;20242;-72
2021/10/20 07:44:55;;;;;;;3.37;3.00;;;;;;;15.26;61.95;96656.00;5072612;28;20275;-72
2021/10/20 07:47:24;;;;;;;4.37;2.80;;;;;;;15.33;62.02;96650.47;5068450;28;20261;-72
2021/10/20 07:49:49;;;;;;;3.00;2.70;;;;;;;15.44;62.42;96641.50;5060399;28;20369;-72
2021/10/20 07:52:17;;;;;;;2.97;2.33;;;;;;;15.57;61.61;96643.69;5065373;28;20178;-72
2021/10/20 07:54:43;;;;;;;4.37;2.80;;;;;;;15.46;61.80;96642.06;5072789;28;20193;-72
2021/10/20 07:57:10;;;;;;;3.90;2.93;;;;;;;15.51;61.95;96636.00;5063612;28;20240;-72
2021/10/20 07:59:36;;;;;;;6.57;2.77;;;;;;;15.43;61.30;96625.94;5067092;28;20555;-72
2021/10/20 08:02:02;;;;;;;3.93;2.47;;;;;;;15.66;59.08;96620.22;5063209;28;20645;-72
2021/10/20 08:04:28;;;;;;;3.17;2.30;;;;;;;15.65;58.46;96611.50;5067833;28;20527;-72
2021/10/20 08:06:54;;;;;;;2.67;2.40;;;;;;;15.83;58.23;96620.72;5068305;28;20244;-72
2021/10/20 08:09:19;;;;;;;2.10;1.90;;;;;;;16.04;57.27;96616.25;5067713;28;20181;-72
2021/10/20 08:11:45;;;;;;;4.77;2.13;;;;;;;16.08;56.90;96612.03;5072843;28;20224;-72
2021/10/20 08:14:10;;;;;;;3.93;2.57;;;;;;;16.42;57.11;96612.25;5067499;28;20227;-72
2021/10/20 08:16:36;;;;;;;4.97;2.50;;;;;;;16.42;56.89;96607.75;5059784;28;20224;-72
2021/10/20 08:19:02;;;;;;;2.53;2.33;;;;;;;16.67;55.89;96608.75;5067300;28;20173;-72
2021/10/20 08:21:27;;;;;;;3.20;2.50;;;;;;;16.79;55.46;96610.06;5065000;28;20181;-72
2021/10/20 08:23:53;;;;;;;2.00;1.90;;;;;;;16.80;54.91;96602.91;5074593;28;20252;-72
2021/10/20 08:26:19;;;;;;;4.70;2.60;;;;;;;16.99;54.92;96604.72;5061876;28;20276;-71
2021/10/20 08:28:44;;;;;;;4.60;2.50;;;;;;;17.06;55.00;96601.75;5073210;28;20227;-72
2021/10/20 08:31:09;;;;;;;4.50;3.00;;;;;;;17.28;54.82;96614.59;5073202;28;20201;-72
2021/10/20 08:33:35;;;;;;;3.40;2.33;;;;;;;17.22;54.59;96610.44;5074832;28;20627;-72
2021/10/20 08:36:00;;;;;;;2.90;2.47;;;;;;;17.29;54.25;96603.75;5064973;28;20296;-72
2021/10/20 08:38:26;;;;;;;3.17;2.77;;;;;;;17.36;54.27;96612.19;5064252;28;20216;-72
2021/10/20 08:40:52;;;;;;;2.30;2.07;;;;;;;16.90;55.50;96608.16;5073696;28;20177;-72
2021/10/20 08:43:19;;;;;;;3.90;2.50;;;;;;;17.00;55.59;96613.41;5071680;28;20193;-72
2021/10/20 08:45:46;;;;;;;2.63;2.30;;;;;;;17.14;55.26;96608.34;5057571;28;20213;-72
2021/10/20 08:48:18;;;;;;;2.70;2.50;;;;;;;17.27;55.05;96616.50;5066045;28;20178;-72
2021/10/20 08:50:52;;;;;;;4.43;2.70;;;;;;;17.40;54.88;96623.81;5064610;28;20174;-72
2021/10/20 08:53:19;;;;;;;2.33;2.10;;;;;;;17.57;53.65;96623.47;5062130;28;20182;-72
2021/10/20 08:55:49;;;;;;;3.53;2.50;;;;;;;17.78;53.22;96618.84;5058592;28;20247;-72
2021/10/20 08:58:15;;;;;;;4.40;2.42;;;;;;;17.79;52.95;96620.44;5058488;28;20186;-72
2021/10/20 09:00:42;;;;;;;3.17;2.10;;;;;;;17.69;53.03;96616.00;5070821;28;20169;-72
2021/10/20 09:03:07;;;;;;;2.25;1.92;;;;;;;17.50;52.81;96611.59;5061203;28;20200;-72
2021/10/20 09:05:32;;;;;;;2.53;2.20;;;;;;;17.44;52.82;96595.69;5060293;28;20280;-72
2021/10/20 09:07:58;;;;;;;3.00;2.60;;;;;;;17.66;53.01;96598.00;5070717;28;20240;-71
2021/10/20 09:10:27;;;;;;;3.35;2.38;;;;;;;17.95;52.44;96603.34;5070888;28;20184;-71
2021/10/20 09:12:56;;;;;;;4.43;2.63;;;;;;;18.08;51.93;96602.72;5066229;28;20181;-71
2021/10/20 09:15:25;;;;;;;2.93;2.30;;;;;;;18.16;51.95;96596.00;5062955;28;20197;-72
2021/10/20 09:17:52;;;;;;;5.53;2.43;;;;;;;18.21;51.52;96590.66;5057849;28;20243;-71
2021/10/20 09:20:17;;;;;;;2.97;2.20;;;;;;;18.37;51.77;96586.78;5066569;28;20181;-72
2021/10/20 09:23:05;;;;;;;5.03;1.92;;;;;;;18.47;51.39;96589.34;5068993;28;20711;-71
2021/10/20 09:25:42;;;;;;;3.07;2.10;;;;;;;18.62;51.41;96583.88;5062310;28;20220;-72
2021/10/20 09:28:12;;;;;;;2.47;2.05;;;;;;;18.62;51.99;96586.53;5068717;28;20544;-72
2021/10/20 09:30:40;;;;;;;4.20;2.40;;;;;;;18.49;52.52;96557.22;5059203;28;20182;-72
2021/10/20 09:33:08;;;;;;;2.03;1.92;;;;;;;18.40;53.09;96553.56;5066832;28;20174;-72
2021/10/20 09:35:34;;;;;;;3.37;2.30;;;;;;;18.25;53.51;96565.16;5059642;28;20299;-73
2021/10/20 09:38:00;;;;;;;3.97;2.00;;;;;;;17.97;53.56;96556.13;5072035;28;20646;-72
2021/10/20 09:40:40;;;;;;;3.70;1.90;;;;;;;18.04;54.56;96551.28;5063019;28;20178;-72
2021/10/20 09:43:07;;;;;;;4.07;2.35;;;;;;;18.25;54.18;96539.41;5069754;28;20317;-72
2021/10/20 09:45:38;;;;;;;2.03;1.80;;;;;;;18.50;53.31;96538.31;5063223;28;20209;-72
2021/10/20 09:48:16;;;;;;;1.85;1.70;;;;;;;18.63;52.50;96523.63;5054162;28;20186;-72
2021/10/20 09:51:06;;;;;;;2.95;1.55;;;;;;;18.88;51.90;96525.97;5069066;28;20211;-72
2021/10/20 09:53:35;;;;;;;1.70;1.60;;;;;;;18.90;51.11;96513.19;5058592;28;20181;-73
2021/10/20 09:56:03;;;;;;;1.70;1.60;;;;;;;18.90;50.73;96512.38;5059416;28;20260;-72
2021/10/20 09:58:32;;;;;;;1.70;1.60;;;;;;;19.07;50.81;96502.06;5054667;28;20263;-72
2021/10/20 10:00:59;;;;;;;2.42;1.70;;;;;;;19.06;50.31;96519.88;5052014;28;20174;-72
2021/10/20 10:03:26;;;;;;;3.40;1.80;;;;;;;19.36;49.96;96531.16;5053694;28;20166;-72
2021/10/20 10:05:52;;;;;;;2.40;2.20;;;;;;;19.68;49.91;96525.09;5056194;28;20194;-73
2021/10/20 10:08:17;;;;;;;1.90;1.75;;;;;;;19.63;49.90;96511.88;5066307;28;20173;-72
2021/10/20 10:10:43;;;;;;;2.28;1.80;;;;;;;19.79;49.57;96498.03;5061982;28;20173;-72
2021/10/20 10:13:11;;;;;;;2.08;1.98;;;;;;;19.90;49.54;96501.31;5058593;28;20172;-72
2021/10/20 10:15:41;;;;;;;2.90;2.00;;;;;;;19.98;49.17;96498.00;5073024;28;20189;-71
2021/10/20 10:18:10;;;;;;;4.70;1.70;;;;;;;20.02;49.07;96498.19;5072957;28;20165;-71
2021/10/20 10:20:41;;;;;;;2.03;1.83;;;;;;;19.74;49.95;96497.34;5072518;28;20177;-71
2021/10/20 10:23:21;;;;;;;2.22;1.80;;;;;;;19.65;50.39;96510.53;5065069;28;20195;-71
2021/10/20 10:25:56;;;;;;;1.60;1.50;;;;;;;20.07;49.46;96496.22;5063916;28;20197;-72
2021/10/20 10:28:32;;;;;;;2.40;1.70;;;;;;;20.09;49.46;96495.94;5065696;28;20214;-71
2021/10/20 10:31:02;;;;;;;1.80;1.60;;;;;;;19.84;49.25;96487.31;5072801;28;20215;-71
2021/10/20 10:33:31;;;;;;;1.70;1.60;;;;;;;19.92;49.36;96484.00;5065101;28;20549;-70
2021/10/20 10:36:19;;;;;;;4.15;1.65;;;;;;;19.96;49.42;96484.19;5057630;28;20211;-71
2021/10/20 10:38:51;;;;;;;4.63;1.60;;;;;;;20.10;49.16;96481.56;5061068;28;20166;-71
2021/10/20 10:41:20;;;;;;;8.90;1.70;;;;;;;20.30;49.03;96505.91;5061878;28;20166;-71
2021/10/20 10:44:04;;;;;;;7.45;1.80;;;;;;;20.22;50.37;96484.53;5062498;28;20177;-68
2021/10/20 10:46:56;;;;;;;2.10;1.90;;;;;;;20.28;50.12;96481.44;5062767;28;20737;-73
2021/10/20 10:49:52;;;;;;;1.70;1.60;;;;;;;20.33;50.92;96468.09;5053013;28;20205;-67
2021/10/20 10:52:33;;;;;;;2.63;1.80;;;;;;;20.52;50.96;96480.50;5061021;28;20197;-71
2021/10/20 10:54:58;;;;;;;3.13;1.70;;;;;;;20.50;49.75;96480.03;5064456;28;20212;-68
2021/10/20 10:57:36;;;;;;;6.07;1.70;;;;;;;20.62;49.92;96477.63;5063012;28;20296;-69
2021/10/20 11:00:06;;;;;;;2.10;1.88;;;;;;;20.66;49.86;96482.06;5060529;28;20648;-69
2021/10/20 11:02:50;;;;;;;1.60;1.50;;;;;;;21.09;50.97;96487.81;5062363;28;20185;-76
2021/10/20 11:05:25;;;;;;;2.00;1.80;;;;;;;20.85;49.57;96463.28;5056876;28;20700;-74
2021/10/20 11:08:06;;;;;;;2.85;1.80;;;;;;;21.22;48.62;96464.09;5062510;28;20170;-75
2021/10/20 11:10:34;;;;;;;5.55;1.70;;;;;;;21.30;49.45;96463.38;5061129;28;20189;-68
2021/10/20 11:13:00;;;;;;;1.92;1.63;;;;;;;21.26;49.42;96465.06;5058946;28;20205;-69
2021/10/20 11:15:28;;;;;;;2.30;1.88;;;;;;;21.18;49.48;96457.81;5051866;28;20201;-71
2021/10/20 11:17:56;;;;;;;1.80;1.70;;;;;;;20.89;49.55;96456.28;5060838;28;20215;-66
2021/10/20 11:20:22;;;;;;;1.65;1.50;;;;;;;20.83;49.90;96451.34;5064881;28;20250;-70
2021/10/20 11:22:55;;;;;;;2.45;1.90;;;;;;;20.56;50.37;96444.22;5054987;28;20236;-74
2021/10/20 11:25:22;;;;;;;1.60;1.50;;;;;;;20.53;50.29;96450.13;5061922;28;20237;-73
2021/10/20 11:27:50;;;;;;;2.25;1.90;;;;;;;20.54;49.40;96439.19;5053493;28;20249;-68
2021/10/20 11:30:17;;;;;;;1.88;1.50;;;;;;;20.57;49.43;96438.56;5052604;28;20174;-69
2021/10/20 11:32:45;;;;;;;2.72;1.63;;;;;;;20.73;49.43;96436.38;5057493;28;20170;-69
2021/10/20 11:35:18;;;;;;;2.72;1.73;;;;;;;20.95;49.27;96438.31;5056953;28;20193;-69